Time;durP1;ratioP1;P1;durP2;ratioP2;P2;SDS_P1;SDS_P2;PMS_P1;PMS_P2;Temp;Humidity;BMP_temperature;BMP_pressure;BME280_temperature;BME280_humidity;BME280_pressure;Samples;Min_cycle;Max_cycle;Signal;HPM_P1;HPM_P2
2021/06/02 00:00:38;;;;;;;4.15;2.33;;;16.90;99.90;;;;;;5078543;28;20025;-74
2021/06/02 00:03:04;;;;;;;3.63;2.72;;;16.90;99.90;;;;;;5079652;28;20029;-74
2021/06/02 00:05:31;;;;;;;3.15;2.28;;;16.80;99.90;;;;;;5085653;28;20449;-74
2021/06/02 00:07:59;;;;;;;2.17;1.90;;;16.70;99.90;;;;;;5081588;28;20478;-74
2021/06/02 00:10:25;;;;;;;6.00;2.50;;;16.70;99.90;;;;;;5072211;28;20025;-74
2021/06/02 00:12:52;;;;;;;6.45;2.40;;;16.70;99.90;;;;;;5072372;28;20033;-74
2021/06/02 00:15:18;;;;;;;3.08;2.05;;;16.70;99.90;;;;;;5075329;28;20024;-74
2021/06/02 00:17:44;;;;;;;4.53;2.22;;;16.60;99.90;;;;;;5077672;28;20105;-74
2021/06/02 00:20:11;;;;;;;6.22;2.30;;;16.30;99.90;;;;;;5072538;28;20052;-74
2021/06/02 00:22:37;;;;;;;6.85;2.80;;;16.10;99.90;;;;;;5076092;28;20027;-74
2021/06/02 00:25:05;;;;;;;6.82;2.30;;;16.00;99.90;;;;;;5092399;28;20140;-74
2021/06/02 00:27:32;;;;;;;3.70;2.42;;;16.00;99.90;;;;;;5073692;28;20028;-74
2021/06/02 00:30:02;;;;;;;5.10;2.40;;;15.90;99.90;;;;;;5071998;28;20339;-74
2021/06/02 00:32:29;;;;;;;2.75;2.55;;;15.90;99.90;;;;;;5075191;28;20036;-74
2021/06/02 00:34:56;;;;;;;5.25;2.47;;;15.90;99.90;;;;;;5072252;28;20508;-74
2021/06/02 00:37:23;;;;;;;3.92;2.60;;;16.00;99.90;;;;;;5072282;28;20029;-74
2021/06/02 00:39:50;;;;;;;2.88;2.10;;;16.00;99.90;;;;;;5072524;28;20135;-74
2021/06/02 00:42:16;;;;;;;3.60;2.58;;;15.80;99.90;;;;;;5072391;28;20031;-74
2021/06/02 00:44:42;;;;;;;2.30;2.05;;;15.90;99.90;;;;;;5071683;28;20410;-74
2021/06/02 00:47:08;;;;;;;13.15;2.45;;;16.00;99.90;;;;;;5072139;28;20032;-74
2021/06/02 00:49:34;;;;;;;7.15;2.33;;;16.10;99.90;;;;;;5091603;28;20054;-75
2021/06/02 00:52:00;;;;;;;5.40;1.95;;;16.00;99.90;;;;;;5078076;28;20141;-74
2021/06/02 00:54:30;;;;;;;2.50;2.15;;;16.10;99.90;;;;;;5078536;28;20025;-74
2021/06/02 00:57:12;;;;;;;3.85;2.20;;;16.20;99.90;;;;;;5081510;28;20039;-74
2021/06/02 00:59:46;;;;;;;3.33;1.83;;;16.40;99.90;;;;;;5080474;28;20497;-74
2021/06/02 01:02:20;;;;;;;2.65;1.50;;;16.30;99.90;;;;;;5075806;28;20043;-74
2021/06/02 01:04:49;;;;;;;4.45;1.48;;;16.40;99.90;;;;;;5075545;28;20374;-74
2021/06/02 01:07:16;;;;;;;3.75;1.65;;;16.20;99.90;;;;;;5074611;28;20035;-74
2021/06/02 01:09:47;;;;;;;6.68;1.80;;;16.00;99.90;;;;;;5075770;28;20043;-74
2021/06/02 01:12:18;;;;;;;4.65;2.20;;;15.80;99.90;;;;;;5076059;28;20390;-74
2021/06/02 01:14:45;;;;;;;2.92;1.77;;;15.80;99.90;;;;;;5084018;28;20025;-74
2021/06/02 01:17:18;;;;;;;7.32;2.97;;;15.80;99.90;;;;;;5075604;28;20123;-74
2021/06/02 01:19:45;;;;;;;11.02;2.20;;;15.80;99.90;;;;;;5095096;28;20024;-74
2021/06/02 01:22:12;;;;;;;3.05;2.20;;;15.80;99.90;;;;;;5094669;28;20504;-74
2021/06/02 01:24:38;;;;;;;7.50;2.50;;;15.80;99.90;;;;;;5095843;28;20027;-74
2021/06/02 01:27:07;;;;;;;5.40;2.33;;;15.80;99.90;;;;;;5080530;28;20039;-74
2021/06/02 01:29:36;;;;;;;3.70;1.90;;;15.80;99.90;;;;;;5082326;28;20048;-75
2021/06/02 01:32:28;;;;;;;3.08;1.70;;;15.70;99.90;;;;;;5084083;28;20386;-74
2021/06/02 01:35:23;;;;;;;3.55;1.83;;;15.80;99.90;;;;;;5074824;28;20077;-74
2021/06/02 01:38:19;;;;;;;3.78;1.90;;;15.70;99.90;;;;;;5079800;28;20036;-74
2021/06/02 01:41:18;;;;;;;2.00;1.80;;;15.70;99.90;;;;;;5087402;28;20124;-74
2021/06/02 01:43:50;;;;;;;6.10;1.88;;;15.60;99.90;;;;;;5000726;28;20284;-74
2021/06/02 01:46:18;;;;;;;3.15;1.65;;;15.40;99.90;;;;;;4995841;28;20033;-74
2021/06/02 01:49:05;;;;;;;3.78;1.73;;;15.30;99.90;;;;;;5010224;28;20526;-74
2021/06/02 01:51:51;;;;;;;3.35;1.90;;;15.20;99.90;;;;;;5012876;28;20037;-74
2021/06/02 01:54:54;;;;;;;6.28;1.65;;;15.30;99.90;;;;;;5011971;28;20064;-74
2021/06/02 01:57:42;;;;;;;6.20;1.70;;;15.10;99.90;;;;;;4997762;28;20117;-74
2021/06/02 02:00:29;;;;;;;1.83;1.70;;;15.10;99.90;;;;;;5006316;28;20046;-74
2021/06/02 02:03:15;;;;;;;6.35;1.80;;;15.20;99.90;;;;;;5009592;28;20061;-74
2021/06/02 02:06:18;;;;;;;3.47;1.95;;;15.50;99.90;;;;;;4999941;28;20034;-74
2021/06/02 02:09:05;;;;;;;7.45;1.92;;;15.50;99.90;;;;;;5012779;28;20046;-74
2021/06/02 02:11:38;;;;;;;3.03;2.22;;;15.40;99.90;;;;;;5012376;28;20124;-74
2021/06/02 02:14:35;;;;;;;4.05;1.95;;;15.40;99.90;;;;;;5000635;28;20487;-75
2021/06/02 02:17:32;;;;;;;4.03;2.10;;;15.50;99.90;;;;;;4992889;28;20080;-74
2021/06/02 02:20:07;;;;;;;2.78;2.25;;;15.50;99.90;;;;;;5039940;28;20052;-74
2021/06/02 02:22:59;;;;;;;3.13;2.70;;;15.60;99.90;;;;;;5074126;28;20347;-75
2021/06/02 02:25:25;;;;;;;4.15;2.40;;;15.70;99.90;;;;;;5074086;28;20036;-74
2021/06/02 02:28:33;;;;;;;6.47;2.60;;;15.80;99.90;;;;;;5073804;28;20060;-74
2021/06/02 02:31:12;;;;;;;3.58;2.25;;;15.80;99.90;;;;;;5068266;28;20044;-74
2021/06/02 02:33:48;;;;;;;4.88;2.88;;;15.80;99.90;;;;;;5090204;28;20020;-74
2021/06/02 02:36:15;;;;;;;4.40;2.80;;;15.80;99.90;;;;;;5084777;28;20043;-74
2021/06/02 02:38:57;;;;;;;3.10;2.42;;;15.80;99.90;;;;;;5088609;28;20035;-74
2021/06/02 02:41:46;;;;;;;3.78;2.35;;;15.80;99.90;;;;;;5093317;28;20103;-74
2021/06/02 02:44:35;;;;;;;7.57;2.92;;;15.80;99.90;;;;;;5076328;28;20024;-74
2021/06/02 02:47:15;;;;;;;3.30;2.78;;;15.80;99.90;;;;;;5073937;28;20382;-74
2021/06/02 02:50:22;;;;;;;2.92;2.60;;;15.90;99.90;;;;;;5073650;28;20100;-74
2021/06/02 02:53:10;;;;;;;3.28;2.97;;;16.00;99.90;;;;;;5073220;28;20794;-74
2021/06/02 02:55:37;;;;;;;3.13;1.98;;;16.00;99.90;;;;;;5088737;28;20069;-74
2021/06/02 02:58:35;;;;;;;3.97;1.63;;;15.90;99.90;;;;;;5091365;28;20066;-74
2021/06/02 03:01:21;;;;;;;5.47;2.17;;;15.80;99.90;;;;;;5084731;28;20532;-74
2021/06/02 03:03:54;;;;;;;6.43;2.55;;;15.50;99.90;;;;;;5085655;28;20038;-75
2021/06/02 03:06:25;;;;;;;7.03;2.15;;;15.60;99.90;;;;;;5088540;28;20086;-74
2021/06/02 03:09:15;;;;;;;3.25;2.20;;;15.50;99.90;;;;;;5072102;28;20028;-74
2021/06/02 03:11:57;;;;;;;3.03;2.20;;;15.50;99.90;;;;;;5074430;28;20029;-74
2021/06/02 03:14:56;;;;;;;2.38;1.80;;;15.10;99.90;;;;;;5075244;28;20307;-74
2021/06/02 03:18:00;;;;;;;4.68;2.20;;;15.10;99.90;;;;;;5072222;28;20397;-74
2021/06/02 03:20:32;;;;;;;7.32;2.55;;;15.10;99.90;;;;;;5075948;28;20027;-74
2021/06/02 03:23:15;;;;;;;3.35;2.65;;;15.30;99.90;;;;;;5073746;28;20036;-74
2021/06/02 03:26:03;;;;;;;3.95;2.67;;;15.50;99.90;;;;;;5087287;28;20032;-74
2021/06/02 03:29:06;;;;;;;7.40;3.75;;;15.70;99.90;;;;;;5072677;28;20398;-74
2021/06/02 03:31:53;;;;;;;4.93;2.17;;;15.80;99.90;;;;;;5033950;28;20069;-74
2021/06/02 03:34:23;;;;;;;2.85;2.65;;;15.80;99.90;;;;;;5023028;28;20033;-74
2021/06/02 03:37:19;;;;;;;5.47;2.42;;;15.80;99.90;;;;;;5039705;28;20021;-74
2021/06/02 03:39:58;;;;;;;5.38;2.20;;;15.80;99.90;;;;;;5041754;28;20037;-74
2021/06/02 03:42:44;;;;;;;5.25;2.63;;;15.80;99.90;;;;;;5046246;28;20056;-74
2021/06/02 03:45:35;;;;;;;5.00;2.60;;;15.80;99.90;;;;;;5027893;28;20037;-74
2021/06/02 03:48:14;;;;;;;3.20;2.90;;;15.80;99.90;;;;;;5029312;28;20131;-74
2021/06/02 03:50:59;;;;;;;8.15;3.17;;;15.80;99.90;;;;;;5040822;28;20037;-74
2021/06/02 03:53:51;;;;;;;5.68;3.35;;;15.80;99.90;;;;;;5030327;28;20037;-74
2021/06/02 03:56:35;;;;;;;3.15;1.75;;;15.80;99.90;;;;;;5030140;28;20072;-74
2021/06/02 03:59:36;;;;;;;2.47;1.52;;;15.70;99.90;;;;;;5043573;28;20110;-74
2021/06/02 04:02:39;;;;;;;3.33;1.80;;;15.50;99.90;;;;;;4979074;28;20043;-74
2021/06/02 04:05:11;;;;;;;5.03;2.10;;;15.50;99.90;;;;;;4985022;28;20121;-74
2021/06/02 04:07:46;;;;;;;4.18;1.65;;;15.50;99.90;;;;;;5001955;28;20093;-75
2021/06/02 04:10:14;;;;;;;7.40;2.00;;;15.50;99.90;;;;;;5008173;28;20030;-74
2021/06/02 04:13:01;;;;;;;7.80;2.53;;;15.50;99.90;;;;;;5008007;28;20040;-74
2021/06/02 04:15:30;;;;;;;3.42;1.98;;;15.10;99.90;;;;;;5005556;28;20022;-74
2021/06/02 04:17:57;;;;;;;10.23;3.37;;;15.20;99.90;;;;;;4999754;28;20555;-74
2021/06/02 04:20:24;;;;;;;3.42;2.10;;;15.20;99.90;;;;;;5003712;28;20350;-74
2021/06/02 04:22:50;;;;;;;4.55;2.20;;;15.40;99.90;;;;;;5000837;28;20034;-74
2021/06/02 04:25:18;;;;;;;4.80;2.90;;;15.40;99.90;;;;;;5000768;28;20044;-74
2021/06/02 04:27:48;;;;;;;2.95;1.85;;;15.30;99.90;;;;;;4996636;28;20112;-74
2021/06/02 04:30:18;;;;;;;2.60;2.40;;;15.30;99.90;;;;;;5003511;28;20598;-75
2021/06/02 04:32:46;;;;;;;5.00;2.47;;;15.40;99.90;;;;;;4995033;28;20109;-74
2021/06/02 04:35:16;;;;;;;9.00;2.53;;;15.50;99.90;;;;;;4995064;28;20033;-75
2021/06/02 04:37:43;;;;;;;5.88;2.35;;;15.50;99.90;;;;;;5039480;28;20047;-74
2021/06/02 04:40:10;;;;;;;4.28;1.80;;;15.50;99.90;;;;;;5079931;28;20035;-74
2021/06/02 04:42:39;;;;;;;10.65;2.92;;;15.50;99.90;;;;;;5085566;28;20059;-74
2021/06/02 04:45:23;;;;;;;3.25;2.40;;;15.50;99.90;;;;;;5083237;28;20040;-74
2021/06/02 04:47:49;;;;;;;3.58;2.55;;;15.60;99.90;;;;;;5078954;28;20059;-74
2021/06/02 04:50:18;;;;;;;3.35;1.92;;;15.60;99.90;;;;;;5074650;28;20025;-74
2021/06/02 04:53:05;;;;;;;3.22;2.03;;;15.60;99.90;;;;;;5086076;28;20533;-74
2021/06/02 04:56:14;;;;;;;3.58;2.00;;;15.50;99.90;;;;;;5088713;28;20100;-74
2021/06/02 04:58:43;;;;;;;6.30;2.77;;;15.60;99.90;;;;;;5076104;28;20012;-74
2021/06/02 05:01:35;;;;;;;2.53;2.10;;;15.60;99.90;;;;;;5077231;28;20485;-75
2021/06/02 05:04:38;;;;;;;6.03;2.65;;;15.50;99.90;;;;;;5004344;28;20058;-75
2021/06/02 05:07:12;;;;;;;2.85;2.47;;;15.30;99.90;;;;;;5002228;28;20034;-74
2021/06/02 05:10:02;;;;;;;3.40;2.85;;;15.40;99.90;;;;;;5001825;28;20050;-74
2021/06/02 05:13:04;;;;;;;5.05;3.17;;;15.50;99.90;;;;;;5003037;28;20034;-74
2021/06/02 05:16:07;;;;;;;3.67;2.55;;;15.60;99.90;;;;;;5010450;28;20038;-74
2021/06/02 05:18:52;;;;;;;7.90;2.95;;;15.60;99.90;;;;;;5002919;28;20045;-74
2021/06/02 05:24:31;;;;;;;4.72;2.97;;;16.00;99.90;;;;;;4994879;28;20031;-74
2021/06/02 05:26:57;;;;;;;5.72;2.90;;;16.10;99.90;;;;;;5000806;28;20606;-74
2021/06/02 05:29:32;;;;;;;4.82;2.85;;;16.10;99.90;;;;;;4992985;28;20036;-74
2021/06/02 05:32:43;;;;;;;2.95;2.67;;;16.10;99.90;;;;;;4998246;28;20050;-74
2021/06/02 05:35:30;;;;;;;2.70;2.50;;;16.00;99.90;;;;;;5002928;28;20138;-76
2021/06/02 05:38:23;;;;;;;5.75;2.80;;;16.00;99.90;;;;;;4997681;28;20085;-74
2021/06/02 05:41:22;;;;;;;2.75;2.42;;;16.10;99.90;;;;;;5030553;28;20032;-74
2021/06/02 05:44:26;;;;;;;5.20;2.87;;;16.20;99.90;;;;;;5075468;28;20029;-74
2021/06/02 05:47:23;;;;;;;5.72;2.33;;;16.30;99.90;;;;;;5042061;28;20045;-74
2021/06/02 05:50:27;;;;;;;6.78;2.95;;;16.40;99.90;;;;;;5051423;28;20031;-74
2021/06/02 05:53:22;;;;;;;5.78;2.67;;;16.50;99.90;;;;;;5051181;28;20407;-74
2021/06/02 05:56:06;;;;;;;4.65;3.10;;;16.60;99.90;;;;;;4973019;28;20089;-75
2021/06/02 05:58:52;;;;;;;4.10;2.90;;;16.70;99.90;;;;;;4973006;28;20039;-74
2021/06/02 06:01:32;;;;;;;3.53;2.60;;;16.70;99.90;;;;;;4951939;28;20050;-75
2021/06/02 06:04:35;;;;;;;5.70;3.08;;;16.70;99.90;;;;;;4937665;29;20031;-74
2021/06/02 06:07:16;;;;;;;5.55;3.30;;;16.60;99.90;;;;;;4953955;28;20041;-74
2021/06/02 06:09:51;;;;;;;3.03;2.72;;;16.70;99.90;;;;;;4949319;28;20035;-75
2021/06/02 06:12:52;;;;;;;3.75;2.47;;;16.70;99.90;;;;;;4933526;29;20040;-74
2021/06/02 06:15:55;;;;;;;3.63;3.17;;;16.80;99.90;;;;;;4934918;29;20500;-74
2021/06/02 06:18:33;;;;;;;14.32;3.33;;;17.00;99.90;;;;;;4965471;28;20043;-74
2021/06/02 06:21:02;;;;;;;5.13;2.63;;;17.00;99.90;;;;;;4973109;28;20030;-74
2021/06/02 06:23:49;;;;;;;2.65;2.15;;;17.00;99.90;;;;;;4973147;28;20039;-75
2021/06/02 06:26:18;;;;;;;2.47;2.28;;;16.90;99.90;;;;;;4971359;28;20547;-74
2021/06/02 06:29:03;;;;;;;2.83;2.35;;;17.20;99.90;;;;;;4972989;28;20125;-78
2021/06/02 06:31:32;;;;;;;2.47;2.28;;;17.30;99.90;;;;;;4971481;28;20081;-75
2021/06/02 06:34:05;;;;;;;4.03;2.83;;;17.30;99.90;;;;;;5009992;28;20034;-75
2021/06/02 06:36:33;;;;;;;5.68;2.33;;;17.50;99.90;;;;;;5030633;28;20068;-75
2021/06/02 06:39:20;;;;;;;8.88;2.50;;;17.70;99.90;;;;;;5075409;28;20044;-75
2021/06/02 06:41:49;;;;;;;2.42;2.22;;;18.00;99.90;;;;;;5078484;28;20396;-76
2021/06/02 06:44:17;;;;;;;3.67;2.70;;;18.00;99.90;;;;;;5083124;28;20042;-76
2021/06/02 06:46:46;;;;;;;2.35;2.08;;;18.00;99.90;;;;;;5084376;28;20052;-77
2021/06/02 06:49:14;;;;;;;3.20;2.13;;;18.20;99.90;;;;;;5081815;28;20031;-77
2021/06/02 06:51:42;;;;;;;6.28;2.65;;;18.50;99.90;;;;;;5084069;28;20096;-79
2021/06/02 06:54:13;;;;;;;3.25;2.13;;;18.70;99.90;;;;;;5081142;28;20388;-81
2021/06/02 06:56:40;;;;;;;9.07;2.72;;;18.80;99.90;;;;;;5079266;28;20025;-81
2021/06/02 06:59:07;;;;;;;2.88;2.55;;;18.90;99.90;;;;;;5087192;28;20027;-82
2021/06/02 07:01:37;;;;;;;3.17;2.63;;;19.00;99.90;;;;;;5076873;28;20028;-81
2021/06/02 07:04:03;;;;;;;5.30;2.25;;;19.00;99.90;;;;;;5083817;28;20033;-81
2021/06/02 07:06:31;;;;;;;3.10;1.75;;;19.00;99.90;;;;;;5082682;28;20024;-81
2021/06/02 07:08:57;;;;;;;2.10;1.73;;;19.10;99.90;;;;;;5081665;28;20112;-81
2021/06/02 07:11:23;;;;;;;2.30;2.10;;;19.20;99.90;;;;;;5075983;28;20553;-81
2021/06/02 07:13:49;;;;;;;5.75;2.60;;;19.50;99.90;;;;;;5081765;28;20138;-81
2021/06/02 07:16:18;;;;;;;1.98;1.88;;;19.50;99.90;;;;;;5092105;28;20389;-82
2021/06/02 07:18:45;;;;;;;2.72;2.05;;;19.60;99.90;;;;;;5085138;28;20020;-81
2021/06/02 07:21:12;;;;;;;2.72;2.33;;;19.70;99.90;;;;;;5090249;28;20024;-81
2021/06/02 07:23:39;;;;;;;3.03;2.47;;;19.70;99.90;;;;;;5084208;28;20016;-81
2021/06/02 07:26:06;;;;;;;4.85;2.35;;;19.90;99.90;;;;;;5071268;28;20444;-81
2021/06/02 07:28:37;;;;;;;5.57;2.83;;;20.10;99.90;;;;;;5072951;28;20052;-80
2021/06/02 07:31:05;;;;;;;5.82;3.55;;;20.40;99.90;;;;;;5074273;28;20032;-82
2021/06/02 07:33:31;;;;;;;4.93;2.55;;;20.60;99.90;;;;;;5072822;28;20103;-82
2021/06/02 07:35:57;;;;;;;2.90;2.70;;;20.90;99.90;;;;;;5073717;28;20074;-82
2021/06/02 07:38:23;;;;;;;5.53;2.33;;;21.10;99.90;;;;;;5079233;28;20428;-82
2021/06/02 07:40:49;;;;;;;2.33;2.10;;;21.20;99.90;;;;;;5072824;28;20024;-82
2021/06/02 07:43:17;;;;;;;2.35;2.03;;;21.10;99.90;;;;;;5085599;28;20042;-82
2021/06/02 07:45:43;;;;;;;5.45;1.90;;;21.10;99.90;;;;;;5074925;28;20087;-82
2021/06/02 07:48:09;;;;;;;4.13;2.45;;;21.20;99.90;;;;;;5088528;28;20032;-83
2021/06/02 07:50:36;;;;;;;3.33;2.25;;;21.30;99.90;;;;;;5070864;28;20027;-82
2021/06/02 07:53:02;;;;;;;3.47;3.00;;;21.50;99.90;;;;;;5089822;28;20036;-83
2021/06/02 07:55:28;;;;;;;3.60;2.28;;;21.40;99.90;;;;;;5078818;28;20078;-83
2021/06/02 07:57:53;;;;;;;5.28;2.83;;;21.20;99.90;;;;;;5088407;28;20032;-83
2021/06/02 08:00:20;;;;;;;4.50;2.17;;;20.80;99.90;;;;;;5076502;28;20055;-82
2021/06/02 08:02:46;;;;;;;6.05;2.60;;;20.50;99.90;;;;;;5073278;28;20045;-82
2021/06/02 08:05:14;;;;;;;6.13;2.13;;;20.30;99.90;;;;;;5075815;28;20396;-82
2021/06/02 08:07:41;;;;;;;3.33;2.03;;;20.40;99.90;;;;;;5087579;28;20069;-82
2021/06/02 08:10:07;;;;;;;5.35;2.17;;;20.60;99.90;;;;;;5085393;28;20020;-82
2021/06/02 08:12:33;;;;;;;2.95;1.83;;;20.70;99.90;;;;;;5090169;28;20055;-82
2021/06/02 08:14:59;;;;;;;3.95;2.55;;;20.60;99.90;;;;;;5091797;28;20489;-82
2021/06/02 08:17:25;;;;;;;8.05;2.50;;;20.80;99.90;;;;;;5074686;28;20052;-82
2021/06/02 08:19:50;;;;;;;7.65;2.10;;;21.00;99.90;;;;;;5085594;28;20079;-82
2021/06/02 08:22:16;;;;;;;3.80;2.20;;;21.10;99.90;;;;;;5085376;28;20032;-83
2021/06/02 08:24:42;;;;;;;4.68;2.10;;;21.20;99.90;;;;;;5091617;28;20020;-82
2021/06/02 08:27:12;;;;;;;4.72;2.10;;;21.30;99.90;;;;;;5081363;28;20028;-83
2021/06/02 08:29:38;;;;;;;;;;;22.10;99.90;;;;;;5072907;28;20570;-82
2021/06/02 08:32:04;;;;;;;3.72;2.00;;;21.40;99.90;;;;;;5081210;28;19965;-81
2021/06/02 08:34:30;;;;;;;3.40;1.95;;;21.20;99.90;;;;;;5085838;28;20490;-84
2021/06/02 08:36:56;;;;;;;2.30;2.08;;;20.80;99.90;;;;;;5071547;28;20029;-78
2021/06/02 08:39:21;;;;;;;3.47;2.00;;;21.10;99.90;;;;;;5071343;28;20490;-81
2021/06/02 08:41:50;;;;;;;4.85;2.10;;;21.00;99.90;;;;;;5078860;28;20401;-81
2021/06/02 08:44:16;;;;;;;2.47;2.05;;;21.30;99.90;;;;;;5075822;28;20067;-81
2021/06/02 08:46:42;;;;;;;4.43;2.05;;;21.30;99.90;;;;;;5072608;28;20032;-81
2021/06/02 08:49:08;;;;;;;3.35;2.45;;;21.30;99.90;;;;;;5088846;28;20082;-83
2021/06/02 08:51:35;;;;;;;7.00;2.63;;;21.50;99.90;;;;;;5090773;28;20373;-84
2021/06/02 08:54:01;;;;;;;2.85;1.90;;;21.70;99.90;;;;;;5091851;28;20366;-84
2021/06/02 08:56:28;;;;;;;3.30;2.03;;;21.90;99.90;;;;;;5091752;28;20114;-84
2021/06/02 08:58:54;;;;;;;7.30;2.70;;;22.20;99.90;;;;;;5091907;28;20481;-84
2021/06/02 09:01:24;;;;;;;8.73;3.47;;;22.40;99.90;;;;;;5091526;28;20024;-84
2021/06/02 09:03:51;;;;;;;2.22;1.85;;;22.40;99.90;;;;;;5091817;28;20028;-84
2021/06/02 09:06:18;;;;;;;1.83;1.73;;;22.60;99.90;;;;;;5091382;28;20052;-84
2021/06/02 09:08:44;;;;;;;5.50;1.60;;;22.70;99.90;;;;;;5091746;28;20016;-84
2021/06/02 09:11:17;;;;;;;4.68;2.13;;;22.30;99.90;;;;;;5091758;28;20028;-84
2021/06/02 09:13:44;;;;;;;3.42;2.00;;;22.40;99.90;;;;;;5095176;28;20022;-84
2021/06/02 09:16:26;;;;;;;2.53;1.63;;;22.50;99.90;;;;;;5095397;28;20032;-84
2021/06/02 09:19:09;;;;;;;3.13;1.50;;;22.90;99.90;;;;;;5095269;28;20019;-84
2021/06/02 09:21:38;;;;;;;2.20;1.98;;;23.50;99.90;;;;;;5094786;28;20437;-84
2021/06/02 09:24:05;;;;;;;3.20;2.10;;;23.00;99.90;;;;;;5093858;28;20095;-83
2021/06/02 09:26:32;;;;;;;2.47;2.28;;;23.80;99.90;;;;;;5094796;28;20057;-84
2021/06/02 09:29:02;;;;;;;3.58;1.80;;;23.80;99.90;;;;;;5093943;28;20070;-83
2021/06/02 09:31:30;;;;;;;4.18;1.92;;;23.50;99.90;;;;;;5094819;28;20077;-84
2021/06/02 09:34:00;;;;;;;2.35;2.10;;;23.00;99.90;;;;;;5094974;28;20023;-84
2021/06/02 09:36:39;;;;;;;2.78;1.73;;;23.00;99.90;;;;;;5093110;28;20027;-84
2021/06/02 09:39:11;;;;;;;2.85;2.03;;;23.10;99.90;;;;;;5094951;28;20062;-84
2021/06/02 09:41:45;;;;;;;6.43;2.80;;;23.50;99.90;;;;;;5093561;28;20032;-84
2021/06/02 09:44:22;;;;;;;4.80;2.00;;;23.30;99.90;;;;;;5094578;28;20032;-83
2021/06/02 09:47:11;;;;;;;3.20;2.00;;;23.00;99.90;;;;;;5093243;28;20500;-83
2021/06/02 09:49:54;;;;;;;1.83;1.55;;;23.10;99.90;;;;;;5094139;28;20051;-84
2021/06/02 09:52:39;;;;;;;4.47;2.30;;;22.90;99.90;;;;;;5094828;28;20103;-83
2021/06/02 09:55:14;;;;;;;2.40;2.13;;;23.50;99.90;;;;;;5093355;28;20106;-84
2021/06/02 09:57:41;;;;;;;8.80;2.28;;;24.30;99.90;;;;;;5094534;28;20036;-84
2021/06/02 10:00:10;;;;;;;3.38;2.17;;;24.90;99.90;;;;;;5094294;28;20493;-84
2021/06/02 10:02:35;;;;;;;3.70;2.03;;;24.80;99.90;;;;;;5092893;28;20035;-84
2021/06/02 10:05:06;;;;;;;4.00;1.90;;;24.40;99.90;;;;;;5094211;28;20028;-84
2021/06/02 10:07:31;;;;;;;;;;;23.90;99.90;;;;;;5094537;28;20028;-84
2021/06/02 10:10:12;;;;;;;2.78;1.98;;;23.50;99.90;;;;;;5094312;28;19911;-84
2021/06/02 10:12:39;;;;;;;4.53;2.58;;;23.50;99.90;;;;;;5094067;28;20023;-84
2021/06/02 10:15:07;;;;;;;3.90;2.30;;;23.70;99.90;;;;;;5094261;28;20028;-84
2021/06/02 10:17:33;;;;;;;3.25;2.00;;;23.90;99.90;;;;;;5094220;28;20027;-83
2021/06/02 10:20:13;;;;;;;2.30;2.05;;;24.20;99.90;;;;;;5093877;28;20041;-83
2021/06/02 10:22:40;;;;;;;3.22;2.42;;;24.80;99.90;;;;;;5093396;28;20024;-83
2021/06/02 10:25:08;;;;;;;8.25;2.55;;;26.80;99.90;;;;;;5080027;28;20029;-83
2021/06/02 10:27:35;;;;;;;2.55;2.08;;;26.00;99.90;;;;;;5073613;28;20158;-83
2021/06/02 10:30:01;;;;;;;2.83;2.55;;;25.90;99.90;;;;;;5073658;28;20154;-83
2021/06/02 10:32:27;;;;;;;2.05;1.85;;;28.40;99.90;;;;;;5073527;28;20096;-83
2021/06/02 10:34:54;;;;;;;1.95;1.73;;;28.80;99.90;;;;;;5091162;28;20508;-83
2021/06/02 10:37:23;;;;;;;3.85;2.00;;;26.90;99.90;;;;;;5093841;28;20031;-83
2021/06/02 10:39:58;;;;;;;2.78;2.58;;;26.40;99.90;;;;;;5093619;28;20055;-83
2021/06/02 10:42:50;;;;;;;3.05;1.90;;;27.80;99.90;;;;;;5086697;28;20131;-83
2021/06/02 10:45:18;;;;;;;4.80;2.13;;;27.60;99.90;;;;;;5081386;28;20079;-83
2021/06/02 10:47:51;;;;;;;4.00;2.45;;;26.50;99.90;;;;;;5080993;28;20158;-85
2021/06/02 10:50:33;;;;;;;2.45;2.17;;;27.60;99.90;;;;;;5086201;28;20024;-82
2021/06/02 10:53:01;;;;;;;2.92;2.13;;;27.20;99.90;;;;;;5078567;28;20099;-85
2021/06/02 10:55:42;;;;;;;2.00;1.90;;;26.20;99.90;;;;;;5082216;28;20016;-82
2021/06/02 10:58:41;;;;;;;2.92;2.47;;;27.70;99.90;;;;;;5081634;28;20051;-83
2021/06/02 11:01:06;;;;;;;3.00;2.10;;;32.10;99.90;;;;;;5084884;28;20485;-82
2021/06/02 11:03:35;;;;;;;1.90;1.80;;;28.00;99.90;;;;;;5076509;28;20070;-82
2021/06/02 11:06:18;;;;;;;2.50;2.20;;;26.80;99.90;;;;;;5081942;28;20070;-82
2021/06/02 11:08:53;;;;;;;9.18;2.65;;;28.10;99.90;;;;;;5081789;28;20501;-82
2021/06/02 11:11:38;;;;;;;2.42;2.03;;;30.60;99.90;;;;;;5081733;28;20024;-82
2021/06/02 11:14:19;;;;;;;3.50;2.45;;;31.80;99.90;;;;;;5079974;28;20055;-82
2021/06/02 11:16:46;;;;;;;1.85;1.63;;;30.60;99.90;;;;;;5079754;28;20032;-83
2021/06/02 11:19:16;;;;;;;4.53;2.25;;;28.50;99.90;;;;;;5083372;28;20111;-83
2021/06/02 11:21:54;;;;;;;4.40;2.03;;;27.50;99.90;;;;;;5081573;28;20071;-83
2021/06/02 11:24:32;;;;;;;2.20;1.80;;;27.40;99.90;;;;;;5081673;28;20022;-83
2021/06/02 11:27:10;;;;;;;3.47;2.42;;;26.60;99.90;;;;;;5077676;28;20025;-84
2021/06/02 11:29:51;;;;;;;3.55;2.50;;;27.10;99.90;;;;;;5082328;28;20501;-84
2021/06/02 11:32:28;;;;;;;3.63;2.17;;;28.60;99.90;;;;;;5083634;28;20020;-85
2021/06/02 11:35:06;;;;;;;2.80;2.35;;;31.00;99.90;;;;;;5079912;28;20024;-83
2021/06/02 11:37:35;;;;;;;2.97;2.00;;;29.50;99.90;;;;;;5080991;28;20515;-84
2021/06/02 11:40:04;;;;;;;5.45;3.28;;;30.80;99.90;;;;;;5075031;28;20071;-83
2021/06/02 11:42:45;;;;;;;5.90;3.13;;;34.20;99.90;;;;;;5080951;28;20036;-81
2021/06/02 11:45:14;;;;;;;4.82;3.78;;;34.00;98.70;;;;;;5079293;28;20290;-82
2021/06/02 11:47:45;;;;;;;3.25;2.83;;;34.90;97.20;;;;;;5091043;28;20028;-81
2021/06/02 11:50:14;;;;;;;3.03;2.55;;;35.20;95.90;;;;;;5087499;28;20046;-81
2021/06/02 11:52:44;;;;;;;3.17;2.38;;;35.10;94.60;;;;;;5081080;28;20024;-81
2021/06/02 11:55:13;;;;;;;5.00;2.60;;;34.50;94.70;;;;;;5072709;28;20062;-81
2021/06/02 11:57:43;;;;;;;3.53;2.53;;;31.00;97.70;;;;;;5080601;28;20411;-81
2021/06/02 12:00:11;;;;;;;3.55;2.50;;;33.20;99.90;;;;;;5079209;28;20111;-81
2021/06/02 12:02:38;;;;;;;4.13;3.33;;;34.70;96.80;;;;;;5083193;28;20073;-81
2021/06/02 12:05:19;;;;;;;4.75;2.63;;;30.60;99.30;;;;;;5081701;28;20027;-80
2021/06/02 12:07:49;;;;;;;2.47;2.28;;;31.50;97.90;;;;;;5086682;28;20119;-81
2021/06/02 12:10:16;;;;;;;4.90;2.50;;;29.70;99.90;;;;;;5087582;28;20032;-81
2021/06/02 12:12:44;;;;;;;2.83;2.28;;;28.60;99.90;;;;;;5082165;28;20032;-80
2021/06/02 12:15:13;;;;;;;4.05;3.65;;;28.30;99.90;;;;;;5082532;28;20673;-80
2021/06/02 12:17:39;;;;;;;3.10;2.80;;;29.80;99.90;;;;;;5079706;28;20492;-81
2021/06/02 12:20:13;;;;;;;3.58;2.70;;;32.30;99.90;;;;;;5083479;28;20512;-79
2021/06/02 12:22:39;;;;;;;2.83;2.63;;;33.00;99.90;;;;;;5081156;28;20027;-81
2021/06/02 12:25:23;;;;;;;3.70;2.13;;;33.30;97.20;;;;;;5086067;28;20524;-81
2021/06/02 12:27:57;;;;;;;2.97;2.78;;;31.20;99.90;;;;;;5072315;28;20028;-81
2021/06/02 12:30:27;;;;;;;5.22;2.38;;;31.20;99.90;;;;;;5086787;28;20485;-81
2021/06/02 12:32:55;;;;;;;2.85;2.25;;;32.30;99.90;;;;;;5085593;28;20389;-81
2021/06/02 12:35:38;;;;;;;4.90;3.00;;;31.70;99.90;;;;;;5082635;28;20031;-81
2021/06/02 12:38:14;;;;;;;5.95;2.42;;;30.40;99.90;;;;;;5079697;28;20107;-81
2021/06/02 12:41:00;;;;;;;3.90;3.50;;;28.80;99.90;;;;;;5079963;28;20033;-81
2021/06/02 12:43:45;;;;;;;4.03;2.30;;;33.60;99.90;;;;;;5082376;28;20358;-81
2021/06/02 12:46:13;;;;;;;2.42;2.22;;;34.30;95.00;;;;;;5079034;28;20048;-81
2021/06/02 12:48:40;;;;;;;4.30;2.97;;;32.50;95.80;;;;;;5076200;28;20021;-81
2021/06/02 12:51:08;;;;;;;3.17;2.90;;;33.00;99.40;;;;;;5076003;28;20095;-80
2021/06/02 12:53:35;;;;;;;4.03;2.60;;;35.10;94.80;;;;;;5075875;28;20020;-80
2021/06/02 12:56:01;;;;;;;4.95;2.58;;;36.90;90.50;;;;;;5076010;28;20105;-80
2021/06/02 12:58:30;;;;;;;2.25;2.08;;;32.20;92.90;;;;;;5087802;28;20498;-80
2021/06/02 13:01:02;;;;;;;5.00;2.92;;;29.40;97.80;;;;;;5081196;28;20071;-81
2021/06/02 13:03:28;;;;;;;4.57;2.67;;;31.00;99.90;;;;;;5076364;28;20028;-81
2021/06/02 13:05:55;;;;;;;4.95;3.45;;;30.00;99.90;;;;;;5095841;28;20153;-81
2021/06/02 13:08:23;;;;;;;3.38;2.75;;;33.40;99.10;;;;;;5085206;28;20032;-80
2021/06/02 13:10:49;;;;;;;5.70;3.30;;;34.60;96.10;;;;;;5075691;28;20023;-80
2021/06/02 13:13:16;;;;;;;3.92;2.78;;;32.30;95.20;;;;;;5075187;28;20501;-80
2021/06/02 13:15:44;;;;;;;4.22;2.92;;;30.20;98.30;;;;;;5075794;28;20032;-80
2021/06/02 13:18:30;;;;;;;3.13;2.90;;;31.90;99.50;;;;;;5078933;28;20024;-80
2021/06/02 13:20:56;;;;;;;5.30;3.17;;;35.60;91.90;;;;;;5075784;28;20404;-80
2021/06/02 13:23:31;;;;;;;4.18;3.28;;;32.10;95.10;;;;;;5075312;28;20028;-80
2021/06/02 13:26:14;;;;;;;5.55;2.80;;;29.80;99.90;;;;;;5075658;28;20033;-80
2021/06/02 13:28:52;;;;;;;6.20;3.90;;;29.00;99.90;;;;;;5075219;28;20024;-80
2021/06/02 13:31:19;;;;;;;3.45;3.15;;;33.10;99.70;;;;;;5075400;28;20025;-80